Time;durP1;ratioP1;P1;durP2;ratioP2;P2;SDS_P1;SDS_P2;PMS_P1;PMS_P2;Temp;Humidity;BMP_temperature;BMP_pressure;BME280_temperature;BME280_humidity;BME280_pressure;Samples;Min_cycle;Max_cycle;Signal;HPM_P1;HPM_P2
2022/08/25 00:02:20;;;;;;;4.72;2.60;;;23.80;75.40;;;;;;5063055;28;20032;-88
2022/08/25 00:04:45;;;;;;;4.80;3.10;;;23.80;75.70;;;;;;5041564;28;20029;-88
2022/08/25 00:07:11;;;;;;;6.13;3.15;;;23.80;75.50;;;;;;5098855;28;20028;-88
2022/08/25 00:09:39;;;;;;;5.72;3.15;;;23.80;75.40;;;;;;5070395;28;20031;-87
2022/08/25 00:12:05;;;;;;;4.05;3.10;;;23.80;75.60;;;;;;5058931;28;20029;-87
2022/08/25 00:14:34;;;;;;;8.85;3.20;;;23.80;75.80;;;;;;5058991;28;20099;-89
2022/08/25 00:17:00;;;;;;;6.80;3.20;;;23.70;75.70;;;;;;5058848;28;20021;-88
2022/08/25 00:19:31;;;;;;;7.05;3.15;;;23.70;75.70;;;;;;5044691;28;20032;-87
2022/08/25 00:21:57;;;;;;;8.90;2.95;;;23.70;75.70;;;;;;5078826;28;20040;-87
2022/08/25 00:24:24;;;;;;;7.75;3.40;;;23.70;76.20;;;;;;5078024;28;20025;-88
2022/08/25 00:26:53;;;;;;;5.93;3.33;;;23.60;75.90;;;;;;5060032;28;20028;-88
2022/08/25 00:29:20;;;;;;;8.13;3.85;;;23.60;76.10;;;;;;5077647;28;20471;-87
2022/08/25 00:31:49;;;;;;;6.40;3.30;;;23.50;76.30;;;;;;5040822;28;20021;-87
2022/08/25 00:34:18;;;;;;;5.97;3.63;;;23.50;76.30;;;;;;5057247;28;20111;-87
2022/08/25 00:36:45;;;;;;;7.72;3.80;;;23.60;76.40;;;;;;5040351;28;20025;-88
2022/08/25 00:39:12;;;;;;;9.98;4.13;;;23.60;76.10;;;;;;5057159;28;20059;-88
2022/08/25 00:41:40;;;;;;;9.05;3.55;;;23.50;76.20;;;;;;5058616;28;20029;-88
2022/08/25 00:44:08;;;;;;;7.13;3.92;;;23.50;76.40;;;;;;5058145;28;20033;-88
2022/08/25 00:46:41;;;;;;;6.32;3.90;;;23.50;76.30;;;;;;5046160;28;20028;-88
2022/08/25 00:49:15;;;;;;;8.43;4.13;;;23.50;76.20;;;;;;5078324;28;20029;-87
2022/08/25 00:51:50;;;;;;;7.95;4.50;;;23.50;76.10;;;;;;5076653;28;20025;-87
2022/08/25 00:54:21;;;;;;;12.48;5.28;;;23.50;76.30;;;;;;5040601;28;20036;-88
2022/08/25 00:56:50;;;;;;;11.10;4.15;;;23.40;76.50;;;;;;5040374;28;20167;-88
2022/08/25 00:59:18;;;;;;;9.20;4.00;;;23.50;76.50;;;;;;5065444;28;20029;-87
2022/08/25 01:01:43;;;;;;;5.80;3.88;;;23.40;76.20;;;;;;5078155;28;20025;-88
2022/08/25 01:04:09;;;;;;;12.75;5.20;;;23.40;76.60;;;;;;5060345;28;20082;-89
2022/08/25 01:06:37;;;;;;;8.77;3.92;;;23.40;76.40;;;;;;5089689;28;20043;-87
2022/08/25 01:09:05;;;;;;;13.85;4.43;;;23.40;76.60;;;;;;5039982;28;20034;-88
2022/08/25 01:11:31;;;;;;;9.05;4.63;;;23.40;76.60;;;;;;5058082;28;20044;-88
2022/08/25 01:13:57;;;;;;;9.60;4.38;;;23.40;76.70;;;;;;5040156;28;20189;-87
2022/08/25 01:16:26;;;;;;;8.63;4.97;;;23.40;76.70;;;;;;5039847;28;20033;-87
2022/08/25 01:18:57;;;;;;;8.52;5.10;;;23.40;76.80;;;;;;5039816;28;20122;-87
2022/08/25 01:21:25;;;;;;;7.88;4.50;;;23.40;76.70;;;;;;5049440;28;20035;-88
2022/08/25 01:23:51;;;;;;;9.77;5.47;;;23.30;76.70;;;;;;5077589;28;20044;-88
2022/08/25 01:26:26;;;;;;;12.27;6.50;;;23.30;77.10;;;;;;5059678;28;20441;-87
2022/08/25 01:31:39;;;;;;;11.43;5.95;;;23.30;77.10;;;;;;5057929;28;20036;-86
2022/08/25 01:34:06;;;;;;;13.85;7.50;;;23.30;77.00;;;;;;5039752;28;20056;-87
2022/08/25 01:36:33;;;;;;;10.80;6.22;;;23.30;77.30;;;;;;5057590;28;20033;-87
2022/08/25 01:38:59;;;;;;;13.45;6.72;;;23.30;77.50;;;;;;5023030;28;20056;-87
2022/08/25 01:41:30;;;;;;;12.30;6.95;;;23.30;77.40;;;;;;5056842;28;20021;-88
2022/08/25 01:43:56;;;;;;;13.52;7.32;;;23.30;77.60;;;;;;5039200;28;20036;-87
2022/08/25 01:46:22;;;;;;;13.73;7.75;;;23.30;77.40;;;;;;5057545;28;20104;-87
2022/08/25 01:48:47;;;;;;;13.18;7.15;;;23.30;77.40;;;;;;5057015;28;20029;-87
2022/08/25 01:51:19;;;;;;;15.20;8.10;;;23.30;77.60;;;;;;5039088;28;20037;-88
2022/08/25 01:53:45;;;;;;;15.50;8.32;;;23.30;77.70;;;;;;5039048;28;20040;-87
2022/08/25 01:56:13;;;;;;;20.02;9.15;;;23.30;78.00;;;;;;5039276;28;20033;-87
2022/08/25 01:58:42;;;;;;;16.33;8.65;;;23.20;78.00;;;;;;5038967;28;20021;-88
2022/08/25 02:01:13;;;;;;;18.00;9.55;;;23.20;78.00;;;;;;5039113;28;20036;-88
2022/08/25 02:03:41;;;;;;;17.88;8.38;;;23.20;78.00;;;;;;5056896;28;20506;-88
2022/08/25 02:06:07;;;;;;;16.60;8.40;;;23.20;78.10;;;;;;5061917;28;20495;-88
2022/08/25 02:08:46;;;;;;;19.10;9.55;;;23.20;78.20;;;;;;5097336;28;20035;-87
2022/08/25 02:11:13;;;;;;;16.23;8.47;;;23.20;78.10;;;;;;5058345;28;20052;-86
2022/08/25 02:13:40;;;;;;;17.55;8.60;;;23.20;78.20;;;;;;5038766;28;20748;-87
2022/08/25 02:16:08;;;;;;;17.85;8.63;;;23.10;78.30;;;;;;5056466;28;20028;-87
2022/08/25 02:18:34;;;;;;;15.70;8.43;;;23.20;78.10;;;;;;5056029;28;20035;-86
2022/08/25 02:21:00;;;;;;;15.30;8.63;;;23.00;78.00;;;;;;5072015;28;20029;-86
2022/08/25 02:23:26;;;;;;;13.90;7.90;;;22.90;78.20;;;;;;5076566;28;20041;-85
2022/08/25 02:25:52;;;;;;;17.55;8.93;;;22.90;78.30;;;;;;5058549;28;20048;-86
2022/08/25 02:28:18;;;;;;;11.40;7.65;;;22.90;78.40;;;;;;5056104;28;20029;-87
2022/08/25 02:30:44;;;;;;;13.40;7.43;;;22.90;78.10;;;;;;5054660;28;20120;-87
2022/08/25 02:33:10;;;;;;;21.75;7.68;;;22.90;78.00;;;;;;5056516;28;20036;-86
2022/08/25 02:35:36;;;;;;;13.25;7.32;;;22.80;78.10;;;;;;5056508;28;20036;-87
2022/08/25 02:38:03;;;;;;;14.98;7.97;;;22.90;78.10;;;;;;5037828;28;20098;-87
2022/08/25 02:40:29;;;;;;;14.95;7.63;;;22.80;78.00;;;;;;5038248;28;20059;-87
2022/08/25 02:42:57;;;;;;;10.82;6.30;;;22.80;78.10;;;;;;5038372;28;20029;-87
2022/08/25 02:45:23;;;;;;;10.43;6.35;;;22.80;77.90;;;;;;5038466;28;20033;-87
2022/08/25 02:47:49;;;;;;;13.32;6.35;;;22.80;77.80;;;;;;5038228;28;20388;-86
2022/08/25 02:50:15;;;;;;;12.48;5.95;;;22.80;77.80;;;;;;5060110;28;20105;-86
2022/08/25 02:52:40;;;;;;;10.57;5.32;;;22.80;77.60;;;;;;5075873;28;20027;-87
2022/08/25 02:55:08;;;;;;;10.13;5.63;;;22.80;77.50;;;;;;5057339;28;20514;-87
2022/08/25 02:57:34;;;;;;;9.75;5.13;;;22.80;77.70;;;;;;5039322;28;20557;-87
2022/08/25 03:00:07;;;;;;;9.80;5.05;;;22.80;77.60;;;;;;5038148;28;20033;-87
2022/08/25 03:02:33;;;;;;;11.15;5.35;;;22.80;77.80;;;;;;5045267;28;20082;-87
2022/08/25 03:04:58;;;;;;;7.90;4.43;;;22.70;78.00;;;;;;5078050;28;20032;-86
2022/08/25 03:07:24;;;;;;;10.38;4.97;;;22.60;78.20;;;;;;5082601;28;20632;-87
2022/08/25 03:09:49;;;;;;;8.38;4.85;;;22.60;78.00;;;;;;5037798;28;20151;-88
2022/08/25 03:12:15;;;;;;;8.52;4.22;;;22.50;78.10;;;;;;5037687;28;20111;-88
2022/08/25 03:14:41;;;;;;;9.00;4.68;;;22.50;78.30;;;;;;5037210;28;20652;-88
2022/08/25 03:17:08;;;;;;;8.32;4.38;;;22.50;78.40;;;;;;5055807;28;20131;-87
2022/08/25 03:19:34;;;;;;;7.15;3.80;;;22.50;78.40;;;;;;5055567;28;20077;-86
2022/08/25 03:22:00;;;;;;;6.75;3.40;;;22.50;78.30;;;;;;5055572;28;20115;-86
2022/08/25 03:24:26;;;;;;;6.95;4.10;;;22.50;78.10;;;;;;5037630;28;20041;-86
2022/08/25 03:26:53;;;;;;;6.57;3.17;;;22.60;78.00;;;;;;5055503;28;20562;-87
2022/08/25 03:29:20;;;;;;;5.40;3.15;;;22.60;77.80;;;;;;5062680;28;20016;-86
2022/08/25 03:31:46;;;;;;;5.40;3.30;;;22.60;77.80;;;;;;5057339;28;20024;-87
2022/08/25 03:34:18;;;;;;;5.50;2.70;;;22.60;77.80;;;;;;5075425;28;20096;-87
2022/08/25 03:36:46;;;;;;;6.55;3.03;;;22.60;77.80;;;;;;5062788;28;20090;-85
2022/08/25 03:39:13;;;;;;;4.88;3.08;;;22.60;77.60;;;;;;5037454;28;20116;-87
2022/08/25 03:41:39;;;;;;;4.65;2.75;;;22.60;77.60;;;;;;5055585;28;20025;-87
2022/08/25 03:44:06;;;;;;;5.40;2.58;;;22.50;77.70;;;;;;5068988;28;20021;-86
2022/08/25 03:46:37;;;;;;;4.28;2.38;;;22.50;77.80;;;;;;5075414;28;20063;-88
2022/08/25 03:49:04;;;;;;;4.85;2.58;;;22.50;77.70;;;;;;5057191;28;20470;-88
2022/08/25 03:51:36;;;;;;;7.03;3.30;;;22.50;77.90;;;;;;5061218;28;20025;-87
2022/08/25 03:54:03;;;;;;;4.43;2.65;;;22.40;77.90;;;;;;5055744;28;20035;-87
2022/08/25 03:56:29;;;;;;;5.80;2.58;;;22.40;78.10;;;;;;5037349;28;20399;-87
2022/08/25 03:58:55;;;;;;;4.30;2.65;;;22.30;78.40;;;;;;5037434;28;20018;-88
2022/08/25 04:01:22;;;;;;;5.60;2.65;;;22.40;78.50;;;;;;5055228;28;20041;-88
2022/08/25 04:03:48;;;;;;;7.68;2.80;;;22.50;78.10;;;;;;5055172;28;20025;-88
2022/08/25 04:06:16;;;;;;;6.03;2.58;;;22.50;77.90;;;;;;5055181;28;20040;-88
2022/08/25 04:08:44;;;;;;;3.90;2.47;;;22.60;77.90;;;;;;5065980;28;20423;-86
2022/08/25 04:11:16;;;;;;;4.13;2.42;;;22.50;78.00;;;;;;5057161;28;20032;-86
2022/08/25 04:13:44;;;;;;;6.28;2.63;;;22.50;77.90;;;;;;5074905;28;20040;-88
2022/08/25 04:16:15;;;;;;;4.63;3.03;;;22.50;78.10;;;;;;5057216;28;20027;-87
2022/08/25 04:18:41;;;;;;;6.70;2.88;;;22.50;78.00;;;;;;5037693;28;20112;-87
2022/08/25 04:21:09;;;;;;;6.45;2.30;;;22.60;78.00;;;;;;5037161;28;20028;-87
2022/08/25 04:23:36;;;;;;;3.90;2.63;;;22.60;77.90;;;;;;5036989;28;20032;-87
2022/08/25 04:26:08;;;;;;;4.85;2.47;;;22.60;77.90;;;;;;5054207;28;20083;-86
2022/08/25 04:28:34;;;;;;;5.82;2.47;;;22.60;77.60;;;;;;5055255;28;20029;-86
2022/08/25 04:31:08;;;;;;;8.23;2.58;;;22.60;77.60;;;;;;5036805;28;20087;-86
2022/08/25 04:33:37;;;;;;;7.20;2.40;;;22.60;77.90;;;;;;5037090;28;20017;-87
2022/08/25 04:36:03;;;;;;;6.25;2.42;;;22.60;77.80;;;;;;5036925;28;20032;-87
2022/08/25 04:38:29;;;;;;;6.70;2.10;;;22.60;77.80;;;;;;5036754;28;20083;-87
2022/08/25 04:41:01;;;;;;;4.32;2.17;;;22.60;77.80;;;;;;5041884;28;20029;-87
2022/08/25 04:43:28;;;;;;;3.95;2.10;;;22.50;78.00;;;;;;5045738;28;20112;-86
2022/08/25 04:45:54;;;;;;;4.22;2.53;;;22.50;77.60;;;;;;5064796;28;20044;-85
2022/08/25 04:48:20;;;;;;;5.50;2.25;;;22.60;77.80;;;;;;5040557;28;20036;-89
2022/08/25 04:50:46;;;;;;;4.55;2.58;;;22.50;77.90;;;;;;5040425;28;20116;-85
2022/08/25 04:53:12;;;;;;;6.47;3.28;;;22.50;78.00;;;;;;5039871;28;20412;-85
2022/08/25 04:55:42;;;;;;;4.88;2.00;;;22.50;78.10;;;;;;5040405;28;20099;-85
2022/08/25 04:58:08;;;;;;;6.07;2.30;;;22.50;77.90;;;;;;5057938;28;20021;-83
2022/08/25 05:00:36;;;;;;;5.82;2.15;;;22.50;78.00;;;;;;5058201;28;20082;-84
2022/08/25 05:03:02;;;;;;;6.13;2.45;;;22.50;78.10;;;;;;5059495;28;20029;-85
2022/08/25 05:05:30;;;;;;;7.03;2.97;;;22.50;78.10;;;;;;5077800;28;20024;-82
2022/08/25 05:07:57;;;;;;;4.90;2.92;;;22.50;78.10;;;;;;5082385;28;20059;-80
2022/08/25 05:10:23;;;;;;;6.78;3.10;;;22.50;78.10;;;;;;5057555;28;20547;-80
2022/08/25 05:12:49;;;;;;;6.15;2.90;;;22.50;78.20;;;;;;5077606;28;20418;-80
2022/08/25 05:17:58;;;;;;;6.22;3.22;;;22.40;78.40;;;;;;5077752;28;20643;-84
2022/08/25 05:20:24;;;;;;;6.80;3.88;;;22.40;78.60;;;;;;5065192;28;20028;-84
2022/08/25 05:22:50;;;;;;;5.47;3.92;;;22.40;78.60;;;;;;5057459;28;20029;-84
2022/08/25 05:25:16;;;;;;;7.78;3.33;;;22.40;78.70;;;;;;5056872;28;20046;-84
2022/08/25 05:30:28;;;;;;;8.00;3.97;;;22.30;79.40;;;;;;5051227;28;20032;-84
2022/08/25 05:32:53;;;;;;;6.07;3.15;;;22.20;79.50;;;;;;5066371;28;20840;-84
2022/08/25 05:35:19;;;;;;;6.10;3.42;;;22.20;79.50;;;;;;5048750;28;20389;-84
2022/08/25 05:37:46;;;;;;;10.43;3.72;;;22.20;79.40;;;;;;5065448;28;20110;-83
2022/08/25 05:40:12;;;;;;;6.65;3.60;;;22.30;79.20;;;;;;5047053;28;20040;-82
2022/08/25 05:42:39;;;;;;;5.95;3.33;;;22.30;79.00;;;;;;5065113;28;20035;-81
2022/08/25 05:45:10;;;;;;;11.32;3.50;;;22.30;79.10;;;;;;5069741;28;20036;-81
2022/08/25 05:47:36;;;;;;;5.93;3.35;;;22.30;79.20;;;;;;5046686;28;20035;-83
2022/08/25 05:50:01;;;;;;;7.05;3.80;;;22.30;79.00;;;;;;5063931;28;20028;-83
2022/08/25 05:52:27;;;;;;;7.75;3.22;;;22.30;78.90;;;;;;5066197;28;20051;-82
2022/08/25 05:54:53;;;;;;;6.90;3.20;;;22.30;78.80;;;;;;5046341;28;20067;-82
2022/08/25 05:57:19;;;;;;;7.13;3.30;;;22.40;78.70;;;;;;5066332;28;20017;-82
2022/08/25 05:59:44;;;;;;;7.07;3.28;;;22.40;78.50;;;;;;5066964;28;20084;-85
2022/08/25 06:04:57;;;;;;;9.82;3.35;;;22.30;78.70;;;;;;5067595;28;20100;-85
2022/08/25 06:07:22;;;;;;;6.47;3.60;;;22.30;78.70;;;;;;5043189;28;20044;-84
2022/08/25 06:09:48;;;;;;;10.65;3.22;;;22.30;78.90;;;;;;5064378;28;20459;-84
2022/08/25 06:12:15;;;;;;;11.52;3.42;;;22.30;78.80;;;;;;5063497;28;20074;-85
2022/08/25 06:14:41;;;;;;;9.07;3.72;;;22.30;78.90;;;;;;5048264;28;20140;-85
2022/08/25 06:17:07;;;;;;;7.47;3.75;;;22.40;78.70;;;;;;5066289;28;20098;-85
2022/08/25 06:19:33;;;;;;;7.45;3.50;;;22.40;78.90;;;;;;5066445;28;20113;-84
2022/08/25 06:21:59;;;;;;;6.72;3.63;;;22.40;78.70;;;;;;5046919;28;20032;-85
2022/08/25 06:24:26;;;;;;;8.90;3.92;;;22.40;78.70;;;;;;5048277;28;20499;-85
2022/08/25 06:26:52;;;;;;;6.63;3.45;;;22.40;78.50;;;;;;5046834;28;20035;-84
2022/08/25 06:29:19;;;;;;;8.68;3.67;;;22.40;78.70;;;;;;5044993;28;20115;-84
2022/08/25 06:31:45;;;;;;;7.13;3.70;;;22.50;78.40;;;;;;5063148;28;20480;-84
2022/08/25 06:34:12;;;;;;;6.22;3.35;;;22.50;78.70;;;;;;5049271;28;20020;-84
2022/08/25 06:36:38;;;;;;;6.95;3.75;;;22.40;78.80;;;;;;5047346;28;20048;-84
2022/08/25 06:39:04;;;;;;;6.13;2.85;;;22.40;78.90;;;;;;5064810;28;20013;-85
2022/08/25 06:41:30;;;;;;;8.23;3.50;;;22.50;78.80;;;;;;5048052;28;20017;-85
2022/08/25 06:43:57;;;;;;;8.02;2.88;;;22.40;78.90;;;;;;5065760;28;20033;-86
2022/08/25 06:46:25;;;;;;;9.50;3.15;;;22.40;79.00;;;;;;5064628;28;20129;-84
2022/08/25 06:48:53;;;;;;;7.15;3.75;;;22.40;79.00;;;;;;5046435;28;20031;-85
2022/08/25 06:51:19;;;;;;;6.20;3.10;;;22.50;78.90;;;;;;5064694;28;20095;-84
2022/08/25 06:53:47;;;;;;;5.50;3.00;;;22.60;78.90;;;;;;5065748;28;20032;-85
2022/08/25 06:56:14;;;;;;;11.40;3.10;;;22.60;78.80;;;;;;5045614;28;20047;-81
2022/08/25 06:58:41;;;;;;;11.90;3.40;;;22.60;79.00;;;;;;5045239;28;20021;-85
2022/08/25 07:01:14;;;;;;;6.25;3.55;;;22.60;78.70;;;;;;5043538;28;20093;-85
2022/08/25 07:03:41;;;;;;;5.68;3.22;;;22.70;78.70;;;;;;5047332;28;20043;-86
2022/08/25 07:06:07;;;;;;;8.27;3.00;;;22.70;78.50;;;;;;5052842;28;20020;-83
2022/08/25 07:08:34;;;;;;;7.15;2.63;;;22.80;78.40;;;;;;5037767;28;20033;-83
2022/08/25 07:11:08;;;;;;;6.50;2.45;;;22.80;78.20;;;;;;5040711;28;20035;-83
2022/08/25 07:13:35;;;;;;;5.95;2.60;;;22.80;78.30;;;;;;5040861;28;20052;-84
2022/08/25 07:16:01;;;;;;;7.00;2.30;;;22.80;78.10;;;;;;5050627;28;20357;-85
2022/08/25 07:18:26;;;;;;;9.00;2.72;;;22.80;78.00;;;;;;5052569;28;20021;-81
2022/08/25 07:20:52;;;;;;;7.82;2.83;;;22.90;78.10;;;;;;5061886;28;20075;-83
2022/08/25 07:23:19;;;;;;;6.28;2.13;;;22.90;78.10;;;;;;5062705;28;20369;-84
2022/08/25 07:25:45;;;;;;;8.43;3.17;;;23.00;78.10;;;;;;5054944;28;20423;-83
2022/08/25 07:28:12;;;;;;;6.20;2.47;;;22.90;78.10;;;;;;5036848;28;20029;-82
2022/08/25 07:30:38;;;;;;;8.63;2.70;;;22.90;78.30;;;;;;5054195;28;20467;-83
2022/08/25 07:33:04;;;;;;;4.82;2.35;;;22.90;78.20;;;;;;5062804;28;20029;-83
2022/08/25 07:35:31;;;;;;;7.63;2.10;;;22.90;78.30;;;;;;5053892;28;20017;-84
2022/08/25 07:37:57;;;;;;;8.30;2.00;;;22.80;78.60;;;;;;5056252;28;20057;-83
2022/08/25 07:40:30;;;;;;;9.38;2.90;;;22.80;78.90;;;;;;5054577;28;20033;-83
2022/08/25 07:42:59;;;;;;;9.65;2.85;;;22.70;79.30;;;;;;5054847;28;20057;-83
2022/08/25 07:45:30;;;;;;;10.18;2.20;;;22.70;79.50;;;;;;5055539;28;20108;-82
2022/08/25 07:48:10;;;;;;;7.88;2.08;;;22.70;79.40;;;;;;5044695;28;20036;-83
2022/08/25 07:50:38;;;;;;;4.93;2.20;;;22.80;79.20;;;;;;5062453;28;20032;-82
2022/08/25 07:53:04;;;;;;;8.85;2.55;;;22.80;79.30;;;;;;5046676;28;20083;-83
2022/08/25 07:55:30;;;;;;;6.25;2.53;;;22.80;79.20;;;;;;5063315;28;20031;-83
2022/08/25 07:57:58;;;;;;;8.85;2.25;;;22.80;79.40;;;;;;5062090;28;20400;-84
2022/08/25 08:00:28;;;;;;;4.93;2.00;;;22.70;79.70;;;;;;5064548;28;20677;-83
2022/08/25 08:02:54;;;;;;;;;;;22.80;79.40;;;;;;5044556;28;20058;-83
2022/08/25 08:05:20;;;;;;;6.97;2.80;;;22.80;79.40;;;;;;5072575;28;19908;-83
2022/08/25 08:07:46;;;;;;;6.53;2.53;;;22.80;79.30;;;;;;5056370;28;20102;-87
2022/08/25 08:10:13;;;;;;;8.10;2.83;;;22.70;79.50;;;;;;5055379;28;20476;-86
2022/08/25 08:12:40;;;;;;;5.80;1.92;;;22.70;79.60;;;;;;5074663;28;20178;-80
2022/08/25 08:15:06;;;;;;;5.03;1.90;;;22.70;79.50;;;;;;5053605;28;20048;-83
2022/08/25 08:17:32;;;;;;;5.72;2.10;;;22.70;79.40;;;;;;5058224;28;20021;-83
2022/08/25 08:19:58;;;;;;;3.92;1.92;;;22.80;79.30;;;;;;5038899;28;20032;-83
2022/08/25 08:22:24;;;;;;;7.85;2.20;;;22.70;79.30;;;;;;5041331;28;20119;-82
2022/08/25 08:24:50;;;;;;;4.45;2.60;;;22.70;79.40;;;;;;5060885;28;20108;-85
2022/08/25 08:27:15;;;;;;;5.82;2.28;;;22.70;79.30;;;;;;5038685;28;20021;-83
2022/08/25 08:29:42;;;;;;;4.03;2.05;;;22.80;79.20;;;;;;5056947;28;20033;-84
2022/08/25 08:32:12;;;;;;;8.43;2.28;;;22.70;79.10;;;;;;5059964;28;20505;-84
2022/08/25 08:34:40;;;;;;;4.63;1.98;;;22.80;79.00;;;;;;5052427;28;20102;-84
2022/08/25 08:37:06;;;;;;;8.20;2.20;;;22.70;79.10;;;;;;5052168;28;20028;-84
2022/08/25 08:39:32;;;;;;;6.75;2.72;;;22.70;79.00;;;;;;5075910;28;20498;-86
2022/08/25 08:42:34;;;;;;;6.00;2.60;;;22.70;79.20;;;;;;5052310;28;20676;-88
2022/08/25 08:45:21;;;;;;;5.05;2.08;;;22.70;79.00;;;;;;5046252;28;20049;-88
2022/08/25 08:47:54;;;;;;;6.72;2.65;;;22.70;79.00;;;;;;5044985;28;20025;-87
2022/08/25 08:50:48;;;;;;;5.72;2.05;;;22.60;78.90;;;;;;5064373;28;20024;-87
2022/08/25 08:53:14;;;;;;;3.38;1.83;;;22.60;78.90;;;;;;5050674;28;20111;-87
2022/08/25 08:55:46;;;;;;;5.70;2.10;;;22.60;79.10;;;;;;5054410;28;20427;-86
2022/08/25 08:58:19;;;;;;;7.43;2.10;;;22.70;79.00;;;;;;5077768;28;20107;-86
2022/08/25 09:00:51;;;;;;;6.32;2.08;;;22.70;78.80;;;;;;5049165;28;20055;-86
2022/08/25 09:03:32;;;;;;;4.63;1.85;;;22.80;78.50;;;;;;5053377;28;20067;-85
2022/08/25 09:06:02;;;;;;;4.93;1.80;;;22.80;78.20;;;;;;5069458;28;20043;-86
2022/08/25 09:08:28;;;;;;;3.10;1.67;;;22.90;78.40;;;;;;5060481;28;20021;-86
2022/08/25 09:11:36;;;;;;;4.28;1.45;;;23.00;78.10;;;;;;5070855;28;20039;-86
2022/08/25 09:14:04;;;;;;;3.55;1.40;;;23.00;77.70;;;;;;5022846;28;20573;-87
2022/08/25 09:17:05;;;;;;;2.92;1.63;;;22.90;78.10;;;;;;5051938;28;20025;-85
2022/08/25 09:19:30;;;;;;;2.70;1.20;;;23.00;77.60;;;;;;5062767;28;20105;-86
2022/08/25 09:22:30;;;;;;;2.20;1.35;;;23.20;77.50;;;;;;5064680;28;20040;-86
2022/08/25 09:25:22;;;;;;;2.22;1.23;;;23.20;77.10;;;;;;5060859;28;20036;-87
2022/08/25 09:28:02;;;;;;;2.17;1.17;;;23.20;77.10;;;;;;5055671;28;20143;-86
2022/08/25 09:30:40;;;;;;;2.15;0.90;;;23.20;77.00;;;;;;5056589;28;20032;-87
2022/08/25 09:33:06;;;;;;;1.30;0.60;;;23.20;76.90;;;;;;5056050;28;20021;-87
2022/08/25 09:35:35;;;;;;;1.38;0.70;;;23.10;77.10;;;;;;5057346;28;20112;-87
2022/08/25 09:38:04;;;;;;;1.67;0.98;;;23.00;77.30;;;;;;5057585;28;20040;-87
2022/08/25 09:40:32;;;;;;;2.17;0.68;;;23.10;77.30;;;;;;5058548;28;20469;-87
2022/08/25 09:43:01;;;;;;;1.15;0.47;;;23.00;77.30;;;;;;5070070;28;20480;-83
2022/08/25 09:45:40;;;;;;;1.40;0.60;;;23.00;77.40;;;;;;5073543;28;20373;-85
2022/08/25 09:48:19;;;;;;;1.55;0.60;;;22.90;77.50;;;;;;5041470;28;20041;-85
2022/08/25 09:50:45;;;;;;;2.15;0.60;;;23.00;77.20;;;;;;5062689;28;21184;-84
2022/08/25 09:53:16;;;;;;;3.42;0.77;;;23.10;77.20;;;;;;5064863;28;20029;-85
2022/08/25 09:55:44;;;;;;;1.25;0.50;;;23.30;77.00;;;;;;5047006;28;20027;-86
2022/08/25 09:58:20;;;;;;;1.70;0.50;;;23.50;76.20;;;;;;5047359;28;20020;-85
2022/08/25 10:01:05;;;;;;;0.90;0.40;;;23.80;75.80;;;;;;5064264;28;20348;-85
2022/08/25 10:03:31;;;;;;;2.30;0.70;;;24.10;74.50;;;;;;5065052;28;20032;-85
2022/08/25 10:06:07;;;;;;;4.05;0.60;;;24.40;73.60;;;;;;5066135;28;20024;-85
2022/08/25 10:08:44;;;;;;;1.08;0.52;;;24.60;73.10;;;;;;5049114;28;20591;-85
2022/08/25 10:11:14;;;;;;;1.90;0.70;;;24.70;72.70;;;;;;5063854;28;20485;-85
2022/08/25 10:13:45;;;;;;;1.00;0.55;;;24.70;72.40;;;;;;5043163;28;20041;-87
2022/08/25 10:16:22;;;;;;;2.15;0.65;;;24.80;72.60;;;;;;5062851;28;20036;-86
2022/08/25 10:19:09;;;;;;;1.35;0.75;;;24.80;72.00;;;;;;5041254;28;20634;-87
2022/08/25 10:21:37;;;;;;;1.88;0.70;;;24.50;71.80;;;;;;5051018;28;20036;-87
2022/08/25 10:24:04;;;;;;;1.00;0.43;;;24.30;72.30;;;;;;5065961;28;20043;-87
2022/08/25 10:26:33;;;;;;;1.10;0.60;;;24.20;73.00;;;;;;5038078;28;20082;-85
2022/08/25 10:29:12;;;;;;;2.42;0.55;;;24.10;73.20;;;;;;5059403;28;20068;-88
2022/08/25 10:32:04;;;;;;;1.42;0.80;;;24.10;73.50;;;;;;5050321;28;20025;-89
2022/08/25 10:34:53;;;;;;;0.90;0.50;;;24.10;73.40;;;;;;5056426;28;20017;-88
2022/08/25 10:37:25;;;;;;;1.13;0.55;;;24.20;73.30;;;;;;5056597;28;20024;-90
2022/08/25 10:39:56;;;;;;;2.30;0.63;;;24.30;73.00;;;;;;5055963;28;20072;-89
2022/08/25 10:42:42;;;;;;;1.95;0.75;;;24.50;72.70;;;;;;5056272;28;20021;-88
2022/08/25 10:48:08;;;;;;;1.83;0.60;;;24.80;71.40;;;;;;5055752;28;20411;-88
2022/08/25 10:50:55;;;;;;;1.35;0.65;;;25.10;70.20;;;;;;5051396;28;20029;-89
2022/08/25 10:53:41;;;;;;;2.17;0.40;;;25.40;70.10;;;;;;5047207;28;20025;-90
2022/08/25 10:56:20;;;;;;;1.15;0.32;;;25.50;69.20;;;;;;5038015;28;20017;-89
2022/08/25 10:58:58;;;;;;;1.25;0.50;;;25.40;68.80;;;;;;5055652;28;20028;-87
2022/08/25 11:01:36;;;;;;;2.47;0.40;;;25.30;69.20;;;;;;5055301;28;20100;-88
2022/08/25 11:04:20;;;;;;;3.67;0.50;;;25.20;68.90;;;;;;5045837;28;20709;-89
2022/08/25 11:07:01;;;;;;;1.92;0.50;;;25.10;69.70;;;;;;5050390;28;20051;-89
2022/08/25 11:09:40;;;;;;;1.95;0.52;;;24.90;69.40;;;;;;5057771;28;20111;-88
2022/08/25 11:12:22;;;;;;;1.58;0.35;;;24.80;70.00;;;;;;5057331;28;20074;-89
2022/08/25 11:14:53;;;;;;;2.55;0.40;;;24.80;69.90;;;;;;5061035;28;20037;-89
2022/08/25 11:17:26;;;;;;;1.63;0.30;;;24.80;69.80;;;;;;5041987;28;20555;-90
2022/08/25 11:19:58;;;;;;;1.85;0.17;;;24.60;69.50;;;;;;5060794;28;20052;-90
2022/08/25 11:22:44;;;;;;;0.70;0.17;;;24.40;68.90;;;;;;5076065;28;20028;-90
2022/08/25 11:25:24;;;;;;;0.68;0.20;;;24.40;69.60;;;;;;5075607;28;20021;-91
2022/08/25 11:27:49;;;;;;;1.42;0.20;;;24.30;68.80;;;;;;5057651;28;20066;-92
2022/08/25 11:30:17;;;;;;;1.95;0.30;;;24.30;69.50;;;;;;5046546;28;20033;-91
2022/08/25 11:32:51;;;;;;;1.08;0.20;;;24.40;69.70;;;;;;5067381;28;20025;-89
2022/08/25 11:35:42;;;;;;;1.58;0.20;;;24.50;69.70;;;;;;5064075;28;20028;-90
2022/08/25 11:38:14;;;;;;;1.48;0.28;;;24.50;68.10;;;;;;5058395;28;20405;-91
2022/08/25 11:41:02;;;;;;;0.68;0.22;;;24.50;68.70;;;;;;5059522;28;20021;-90
2022/08/25 11:43:41;;;;;;;1.15;0.22;;;24.40;68.20;;;;;;5037566;28;20028;-90
2022/08/25 11:46:24;;;;;;;2.15;0.20;;;24.40;67.60;;;;;;5044717;28;20515;-89
2022/08/25 11:49:16;;;;;;;2.08;0.10;;;24.40;67.60;;;;;;5070712;28;20044;-89
2022/08/25 11:51:47;;;;;;;0.65;0.22;;;24.50;66.80;;;;;;5015975;28;20052;-89
2022/08/25 11:54:19;;;;;;;0.38;0.17;;;24.80;66.00;;;;;;5058072;28;20437;-89
2022/08/25 11:57:20;;;;;;;0.30;0.10;;;25.00;65.90;;;;;;5056478;28;20420;-88
2022/08/25 11:59:49;;;;;;;0.90;0.30;;;25.10;64.60;;;;;;5056955;28;20025;-90
2022/08/25 12:02:29;;;;;;;0.65;0.10;;;25.40;63.90;;;;;;5038497;28;20029;-88
2022/08/25 12:04:56;;;;;;;0.80;0.20;;;25.60;63.00;;;;;;5061140;28;20548;-89
2022/08/25 12:07:24;;;;;;;1.33;0.30;;;25.60;63.20;;;;;;5044246;28;20057;-90
2022/08/25 12:09:50;;;;;;;0.98;0.10;;;25.80;62.50;;;;;;5038356;28;20099;-88
2022/08/25 12:12:27;;;;;;;0.30;0.10;;;26.00;62.00;;;;;;5045775;28;20032;-89
2022/08/25 12:14:53;;;;;;;0.57;0.17;;;26.20;62.30;;;;;;5062498;28;20044;-89
2022/08/25 12:17:25;;;;;;;0.77;0.20;;;26.30;61.30;;;;;;5056203;28;20861;-89
2022/08/25 12:19:54;;;;;;;0.77;0.10;;;26.60;61.50;;;;;;5042073;28;20037;-87
2022/08/25 12:22:23;;;;;;;0.38;0.15;;;26.60;61.30;;;;;;5062603;28;20033;-89
2022/08/25 12:25:18;;;;;;;0.32;0.20;;;26.60;59.70;;;;;;5055943;28;20028;-90
2022/08/25 12:28:18;;;;;;;2.05;0.30;;;26.60;59.40;;;;;;5035450;28;20032;-89
2022/08/25 12:30:55;;;;;;;2.10;0.30;;;26.70;60.00;;;;;;5055785;28;20064;-89
2022/08/25 12:33:59;;;;;;;1.15;0.20;;;26.50;59.70;;;;;;5055122;28;20033;-88
2022/08/25 12:36:33;;;;;;;2.22;0.32;;;26.40;60.00;;;;;;5038369;28;20029;-89
2022/08/25 12:39:19;;;;;;;1.35;0.73;;;26.30;59.20;;;;;;5064688;28;20403;-89
2022/08/25 12:42:05;;;;;;;0.90;0.30;;;26.20;60.30;;;;;;5070351;28;20043;-90
2022/08/25 12:44:38;;;;;;;1.27;0.40;;;26.30;59.80;;;;;;5064382;28;20021;-89
2022/08/25 12:47:23;;;;;;;1.95;0.30;;;26.40;59.90;;;;;;5076164;28;20024;-89
2022/08/25 12:49:49;;;;;;;0.70;0.30;;;26.70;58.70;;;;;;5059084;28;20051;-83
2022/08/25 12:52:18;;;;;;;1.45;0.30;;;26.90;58.40;;;;;;5059065;28;20184;-80
2022/08/25 12:55:09;;;;;;;0.30;0.20;;;26.90;57.80;;;;;;5068053;28;20028;-80
2022/08/25 12:57:38;;;;;;;1.38;0.30;;;27.20;57.00;;;;;;5056290;28;20054;-83
2022/08/25 13:00:16;;;;;;;0.98;0.25;;;27.30;55.10;;;;;;5053177;28;20127;-84
2022/08/25 13:03:00;;;;;;;1.60;0.30;;;27.20;55.40;;;;;;5041032;28;20025;-82
2022/08/25 13:06:05;;;;;;;1.20;0.30;;;27.20;55.90;;;;;;5070271;28;20119;-86
2022/08/25 13:09:03;;;;;;;0.73;0.20;;;27.50;55.60;;;;;;5038874;28;20029;-87
2022/08/25 13:12:01;;;;;;;2.10;0.40;;;27.40;53.60;;;;;;5068606;28;20082;-85
2022/08/25 13:14:33;;;;;;;2.05;0.60;;;27.30;55.60;;;;;;5069987;28;20101;-86
2022/08/25 13:16:59;;;;;;;1.85;0.50;;;27.20;55.90;;;;;;5038496;28;20083;-86
2022/08/25 13:19:26;;;;;;;1.85;0.70;;;26.90;56.90;;;;;;5038590;28;20047;-86